createdAt,value
2019-05-16T00:00:49.436Z,40.76
2019-05-16T00:03:20.904Z,40.83
2019-05-16T00:05:54.500Z,40.83
2019-05-16T00:08:28.523Z,40.83
2019-05-16T00:11:01.429Z,40.83
2019-05-16T00:13:35.163Z,40.86
2019-05-16T00:16:08.037Z,40.77
2019-05-16T00:18:40.652Z,40.85
2019-05-16T00:21:13.219Z,40.86
2019-05-16T00:23:45.798Z,40.78
2019-05-16T00:26:19.706Z,40.79
2019-05-16T00:28:52.476Z,40.86
2019-05-16T00:31:25.191Z,40.96
2019-05-16T00:33:57.917Z,40.93
2019-05-16T00:36:30.737Z,41.02
2019-05-16T00:39:03.284Z,40.83
2019-05-16T00:41:38.371Z,40.92
2019-05-16T00:44:11.370Z,40.99
2019-05-16T00:46:43.879Z,41.09
2019-05-16T00:49:18.564Z,41.19
2019-05-16T00:51:50.349Z,41.28
2019-05-16T00:54:22.890Z,41.16
2019-05-16T00:56:57.687Z,41.12
2019-05-16T00:59:30.329Z,41.14
2019-05-16T01:02:02.775Z,41.18
2019-05-16T01:04:35.129Z,41.30
2019-05-16T01:07:08.215Z,41.33
2019-05-16T01:09:40.679Z,41.37
2019-05-16T01:12:12.907Z,41.18
2019-05-16T01:14:45.130Z,41.26
2019-05-16T01:17:18.722Z,41.15
2019-05-16T01:19:54.023Z,41.22
2019-05-16T01:22:28.826Z,41.23
2019-05-16T01:25:01.743Z,41.47
2019-05-16T01:27:34.339Z,41.34
2019-05-16T01:30:09.043Z,41.31
2019-05-16T01:32:42.054Z,41.21
2019-05-16T01:35:14.519Z,41.05
2019-05-16T01:37:48.825Z,40.95
2019-05-16T01:40:21.502Z,41.12
2019-05-16T01:42:54.098Z,41.42
2019-05-16T01:45:27.769Z,42.28
2019-05-16T01:48:00.237Z,43.61
2019-05-16T01:50:32.543Z,44.81
2019-05-16T01:53:05.005Z,46.04
2019-05-16T01:55:38.109Z,46.26
2019-05-16T01:58:10.868Z,46.77
2019-05-16T02:00:52.785Z,47.03
2019-05-16T02:03:19.211Z,47.25
2019-05-16T02:05:51.733Z,47.44
2019-05-16T02:08:24.180Z,47.56
2019-05-16T02:10:58.387Z,47.66
2019-05-16T02:13:32.075Z,47.72
2019-05-16T02:16:04.476Z,47.31
2019-05-16T02:18:38.205Z,46.74
2019-05-16T02:21:10.734Z,46.73
2019-05-16T02:23:43.322Z,46.52
2019-05-16T02:26:15.864Z,46.42
2019-05-16T02:28:50.666Z,46.21
2019-05-16T02:31:23.063Z,46.06
2019-05-16T02:33:55.846Z,46.15
2019-05-16T02:36:31.309Z,46.24
2019-05-16T02:39:02.425Z,46.28
2019-05-16T02:41:35.044Z,46.30
2019-05-16T02:44:07.954Z,46.33
2019-05-16T02:46:41.812Z,46.41
2019-05-16T02:49:14.607Z,46.40
2019-05-16T02:51:47.280Z,46.51
2019-05-16T02:54:21.883Z,46.56
2019-05-16T02:56:54.297Z,46.58
2019-05-16T02:59:26.809Z,46.59
2019-05-16T03:02:00.932Z,46.54
2019-05-16T03:04:33.648Z,46.53
2019-05-16T03:07:06.243Z,46.78
2019-05-16T03:09:41.027Z,47.05
2019-05-16T03:12:13.036Z,47.18
2019-05-16T03:14:47.118Z,47.49
2019-05-16T03:17:21.496Z,47.58
2019-05-16T03:19:55.716Z,47.74
2019-05-16T03:22:31.245Z,47.84
2019-05-16T03:25:02.581Z,47.98
2019-05-16T03:27:35.171Z,48.10
2019-05-16T03:30:07.720Z,48.50
2019-05-16T03:32:45.142Z,48.80
2019-05-16T03:35:16.393Z,48.87
2019-05-16T03:37:55.624Z,48.80
2019-05-16T03:40:31.055Z,48.88
2019-05-16T03:43:02.609Z,48.95
2019-05-16T03:45:35.153Z,49.16
2019-05-16T03:48:07.541Z,49.44
2019-05-16T03:50:41.264Z,49.91
2019-05-16T03:53:14.077Z,50.20
2019-05-16T03:55:46.959Z,50.62
2019-05-16T03:58:22.421Z,51.19
2019-05-16T04:00:55.287Z,50.67
2019-05-16T04:03:32.068Z,51.96
2019-05-16T04:06:02.243Z,51.71
2019-05-16T04:08:34.913Z,51.06
2019-05-16T04:11:07.593Z,50.83
2019-05-16T04:13:41.114Z,50.18
2019-05-16T04:16:14.249Z,50.33
2019-05-16T04:18:46.746Z,50.85
2019-05-16T04:21:21.788Z,51.27
2019-05-16T04:23:53.838Z,50.83
2019-05-16T04:26:26.404Z,50.12
2019-05-16T04:29:00.785Z,49.90
2019-05-16T04:31:32.713Z,49.56
2019-05-16T04:34:05.240Z,49.99
2019-05-16T04:36:40.435Z,50.36
2019-05-16T04:39:12.313Z,49.95
2019-05-16T04:41:44.801Z,50.23
2019-05-16T04:44:17.133Z,50.02
2019-05-16T04:46:50.959Z,51.14
2019-05-16T04:49:23.831Z,53.19
2019-05-16T04:51:56.407Z,51.99
2019-05-16T04:54:30.784Z,51.53
2019-05-16T04:57:03.630Z,51.25
2019-05-16T04:59:36.171Z,51.27
2019-05-16T05:02:11.941Z,51.14
2019-05-16T05:05:13.908Z,50.93
2019-05-16T05:07:46.173Z,50.69
2019-05-16T05:10:20.746Z,50.44
2019-05-16T05:15:35.416Z,50.03
2019-05-16T05:18:10.187Z,49.88
2019-05-16T05:20:42.121Z,49.71
2019-05-16T05:23:14.624Z,49.54
2019-05-16T05:25:47.110Z,49.43
2019-05-16T05:28:21.018Z,49.30
2019-05-16T05:30:53.814Z,49.18
2019-05-16T05:33:26.353Z,49.10
2019-05-16T05:36:01.138Z,49.07
2019-05-16T05:38:33.061Z,48.97
2019-05-16T05:41:05.796Z,48.96
2019-05-16T05:43:39.775Z,49.00
2019-05-16T05:46:12.213Z,48.90
2019-05-16T05:48:44.922Z,48.85
2019-05-16T05:51:17.405Z,48.72
2019-05-16T05:53:50.976Z,48.68
2019-05-16T05:56:23.513Z,48.64
2019-05-16T05:58:58.266Z,48.62
2019-05-16T06:01:31.564Z,48.60
2019-05-16T06:04:04.399Z,48.54
2019-05-16T06:06:36.912Z,48.49
2019-05-16T06:09:14.348Z,48.44
2019-05-16T06:11:43.845Z,48.35
2019-05-16T06:14:16.364Z,48.23
2019-05-16T06:16:50.860Z,48.06
2019-05-16T06:19:22.768Z,47.99
2019-05-16T06:21:55.149Z,47.98
2019-05-16T06:24:27.648Z,47.94
2019-05-16T06:27:00.928Z,47.80
2019-05-16T06:29:33.616Z,47.77
2019-05-16T06:32:06.067Z,47.83
2019-05-16T06:34:40.293Z,47.77
2019-05-16T06:37:12.241Z,47.62
2019-05-16T06:39:45.404Z,47.57
2019-05-16T06:42:20.454Z,47.58
2019-05-16T06:44:52.288Z,47.60
2019-05-16T06:47:25.182Z,47.52
2019-05-16T06:50:00.067Z,47.50
2019-05-16T06:52:31.918Z,47.43
2019-05-16T06:55:05.293Z,47.41
2019-05-16T06:57:40.647Z,47.36
2019-05-16T07:00:13.397Z,47.25
2019-05-16T07:02:46.959Z,47.23
2019-05-16T07:05:20.882Z,47.14
2019-05-16T07:07:53.938Z,47.19
2019-05-16T07:10:26.673Z,47.16
2019-05-16T07:13:00.811Z,47.20
2019-05-16T07:15:33.498Z,47.14
2019-05-16T07:18:06.417Z,47.12
2019-05-16T07:20:39.986Z,47.11
2019-05-16T07:23:12.676Z,48.55
2019-05-16T07:25:45.566Z,48.75
2019-05-16T07:28:20.547Z,48.64
2019-05-16T07:30:52.125Z,48.43
2019-05-16T07:33:24.816Z,48.25
2019-05-16T07:35:57.426Z,48.35
2019-05-16T07:38:31.021Z,48.54
2019-05-16T07:41:04.443Z,48.50
2019-05-16T07:43:37.222Z,48.33
2019-05-16T07:46:11.110Z,48.27
2019-05-16T07:48:43.959Z,48.26
2019-05-16T07:51:16.426Z,48.15
2019-05-16T07:53:50.459Z,48.11
2019-05-16T07:56:22.762Z,48.06
2019-05-16T07:58:55.362Z,47.96
2019-05-16T08:01:27.823Z,47.88
2019-05-16T08:04:00.305Z,48.03
2019-05-16T08:06:34.050Z,48.02
2019-05-16T08:09:07.990Z,47.96
2019-05-16T08:11:41.329Z,47.74
2019-05-16T08:14:13.848Z,47.82
2019-05-16T08:16:46.132Z,47.87
2019-05-16T08:19:20.001Z,47.86
2019-05-16T08:21:52.560Z,47.91
2019-05-16T08:24:25.031Z,47.92
2019-05-16T08:27:00.998Z,48.07
2019-05-16T08:29:31.832Z,48.32
2019-05-16T08:32:04.271Z,48.69
2019-05-16T08:34:40.808Z,48.87
2019-05-16T08:37:32.784Z,49.28
2019-05-16T08:39:45.885Z,49.42
2019-05-16T08:42:20.760Z,49.26
2019-05-16T08:44:52.399Z,49.14
2019-05-16T08:47:24.904Z,49.12
2019-05-16T08:50:00.416Z,48.93
2019-05-16T08:52:31.756Z,48.90
2019-05-16T08:55:04.230Z,48.82
2019-05-16T08:57:37.078Z,48.61
2019-05-16T09:00:14.618Z,48.54
2019-05-16T09:02:44.574Z,48.44
2019-05-16T09:05:17.227Z,49.09
2019-05-16T09:07:49.878Z,49.25
2019-05-16T09:12:57.260Z,48.85
2019-05-16T09:15:29.519Z,48.70
2019-05-16T09:18:01.962Z,48.55
2019-05-16T09:20:37.372Z,48.39
2019-05-16T09:23:08.254Z,48.28
2019-05-16T09:25:40.808Z,48.21
2019-05-16T09:28:16.754Z,48.19
2019-05-16T09:30:48.626Z,48.17
2019-05-16T09:33:21.143Z,48.20
2019-05-16T09:35:53.577Z,48.18
2019-05-16T09:38:28.443Z,48.08
2019-05-16T09:41:00.424Z,48.02
2019-05-16T09:43:32.828Z,47.94
2019-05-16T09:46:07.782Z,47.85
2019-05-16T09:48:40.214Z,47.82
2019-05-16T09:51:12.767Z,47.80
2019-05-16T09:53:47.107Z,47.66
2019-05-16T09:56:19.434Z,47.60
2019-05-16T09:58:51.955Z,47.54
2019-05-16T10:01:24.456Z,47.50
2019-05-16T10:03:57.019Z,47.47
2019-05-16T10:06:29.609Z,47.36
2019-05-16T10:10:33.626Z,48.33
2019-05-16T10:13:08.018Z,47.01
2019-05-16T10:15:42.058Z,45.74
2019-05-16T10:18:16.881Z,43.91
2019-05-16T10:20:51.158Z,42.67
2019-05-16T10:23:25.345Z,41.51
2019-05-16T10:25:59.445Z,40.55
2019-05-16T10:28:33.815Z,39.90
2019-05-16T10:31:08.282Z,39.58
2019-05-16T10:33:42.702Z,38.62
2019-05-16T10:36:21.232Z,38.01
2019-05-16T10:38:53.204Z,37.33
2019-05-16T10:41:27.524Z,36.89
2019-05-16T10:44:03.222Z,36.57
2019-05-16T10:46:37.807Z,36.30
2019-05-16T10:49:12.412Z,35.79
2019-05-16T10:51:47.158Z,35.60
2019-05-16T10:54:21.899Z,35.32
2019-05-16T10:56:57.661Z,34.95
2019-05-16T11:00:01.948Z,34.82
2019-05-16T11:02:07.972Z,34.61
2019-05-16T11:04:57.375Z,34.56
2019-05-16T11:07:19.117Z,34.50
2019-05-16T11:09:59.348Z,34.31
2019-05-16T11:12:45.868Z,34.26
2019-05-16T11:15:07.869Z,34.11
2019-05-16T11:17:41.386Z,33.93
2019-05-16T11:20:19.642Z,33.72
2019-05-16T11:22:51.690Z,33.62
2019-05-16T11:25:32.261Z,33.76
2019-05-16T11:28:01.840Z,33.48
2019-05-16T11:30:37.603Z,33.37
2019-05-16T11:33:12.081Z,33.32
2019-05-16T11:35:47.585Z,33.23
2019-05-16T11:38:22.560Z,33.21
2019-05-16T11:40:56.980Z,33.22
2019-05-16T11:43:31.213Z,33.05
2019-05-16T11:46:05.214Z,33.00
2019-05-16T11:48:39.448Z,33.21
2019-05-16T11:51:13.678Z,33.26
2019-05-16T11:53:47.858Z,33.23
2019-05-16T11:56:22.131Z,33.35
2019-05-16T11:58:57.051Z,33.28
2019-05-16T12:01:31.355Z,33.26
2019-05-16T12:04:07.938Z,33.32
2019-05-16T12:06:41.719Z,33.31
2019-05-16T12:09:17.815Z,33.32
2019-05-16T12:12:02.617Z,33.53
2019-05-16T12:14:28.010Z,33.52
2019-05-16T12:17:02.192Z,33.78
2019-05-16T12:19:43.482Z,34.28
2019-05-16T12:22:12.760Z,34.16
2019-05-16T12:24:47.715Z,34.21
2019-05-16T12:27:22.115Z,34.02
2019-05-16T12:29:58.988Z,33.96
2019-05-16T12:32:32.221Z,33.96
2019-05-16T12:35:06.677Z,33.88
2019-05-16T12:37:40.774Z,33.77
2019-05-16T12:40:15.337Z,33.72
2019-05-16T12:42:49.390Z,33.64
2019-05-16T12:45:23.872Z,33.79
2019-05-16T12:47:57.909Z,33.72
2019-05-16T12:50:32.261Z,33.57
2019-05-16T12:53:07.985Z,33.53
2019-05-16T12:55:42.667Z,33.71
2019-05-16T12:58:24.963Z,33.62
2019-05-16T13:00:54.936Z,33.57
2019-05-16T13:03:28.556Z,33.45
2019-05-16T13:06:02.661Z,33.78
2019-05-16T13:08:37.564Z,33.50
2019-05-16T13:11:12.040Z,33.52
2019-05-16T13:14:02.553Z,33.37
2019-05-16T13:16:23.810Z,33.37
2019-05-16T13:18:57.829Z,33.30
2019-05-16T13:21:32.163Z,33.39
2019-05-16T13:24:07.024Z,33.37
2019-05-16T13:26:41.360Z,33.30
2019-05-16T13:29:18.144Z,33.27
2019-05-16T13:31:57.065Z,33.14
2019-05-16T13:34:31.367Z,34.69
2019-05-16T13:37:07.556Z,35.44
2019-05-16T13:39:41.754Z,35.68
2019-05-16T13:42:16.668Z,36.00
2019-05-16T13:44:50.983Z,36.17
2019-05-16T13:47:26.838Z,36.47
2019-05-16T13:50:01.065Z,36.65
2019-05-16T13:52:36.575Z,36.82
2019-05-16T13:55:11.368Z,36.91
2019-05-16T13:57:45.496Z,37.02
2019-05-16T14:00:20.056Z,37.12
2019-05-16T14:02:54.342Z,37.32
2019-05-16T14:05:28.653Z,37.70
2019-05-16T14:08:02.894Z,38.88
2019-05-16T14:10:37.840Z,39.97
2019-05-16T14:13:16.376Z,40.20
2019-05-16T14:15:48.322Z,40.64
2019-05-16T14:18:22.660Z,40.73
2019-05-16T14:20:57.305Z,40.76
2019-05-16T14:23:31.543Z,40.73
2019-05-16T14:26:07.150Z,40.78
2019-05-16T14:28:44.643Z,40.71
2019-05-16T14:31:18.697Z,40.77
2019-05-16T14:33:53.267Z,40.83
2019-05-16T14:36:28.052Z,40.86
2019-05-16T14:39:03.761Z,40.82
2019-05-16T14:41:38.648Z,40.82
2019-05-16T14:44:12.879Z,40.94
2019-05-16T14:46:47.617Z,40.98
2019-05-16T14:49:22.090Z,41.09
2019-05-16T14:51:58.021Z,41.09
2019-05-16T14:54:31.939Z,41.04
2019-05-16T14:57:06.354Z,41.18
2019-05-16T14:59:41.654Z,41.15
2019-05-16T15:02:18.126Z,41.24
2019-05-16T15:04:51.724Z,41.28
2019-05-16T15:07:27.709Z,41.30
2019-05-16T15:10:01.837Z,41.34
2019-05-16T15:12:37.678Z,41.17
2019-05-16T15:15:21.156Z,41.32
2019-05-16T15:17:53.289Z,41.32
2019-05-16T15:20:28.082Z,41.47
2019-05-16T15:23:02.451Z,41.53
2019-05-16T15:25:38.052Z,42.50
2019-05-16T15:28:12.364Z,42.44
2019-05-16T15:30:47.003Z,42.44
2019-05-16T15:33:21.040Z,42.33
2019-05-16T15:35:57.516Z,42.32
2019-05-16T15:38:30.415Z,42.31
2019-05-16T15:41:04.466Z,42.35
2019-05-16T15:43:38.651Z,42.28
2019-05-16T15:46:12.952Z,42.36
2019-05-16T15:48:48.765Z,41.93
2019-05-16T15:51:23.996Z,40.45
2019-05-16T15:53:59.253Z,39.29
2019-05-16T15:56:33.962Z,38.36
2019-05-16T15:59:10.050Z,37.43
2019-05-16T16:01:47.173Z,36.83
2019-05-16T16:04:20.196Z,36.51
2019-05-16T16:06:54.348Z,36.53
2019-05-16T16:09:28.485Z,36.46
2019-05-16T16:12:02.678Z,36.08
2019-05-16T16:14:36.921Z,35.99
2019-05-16T16:17:12.447Z,35.45
2019-05-16T16:19:47.150Z,35.19
2019-05-16T16:25:26.792Z,34.67
2019-05-16T16:28:01.547Z,33.96
2019-05-16T16:30:37.383Z,33.42
2019-05-16T16:33:24.531Z,32.67
2019-05-16T16:35:48.197Z,32.23
2019-05-16T16:38:22.482Z,31.78
2019-05-16T16:40:57.448Z,31.33
2019-05-16T16:43:31.814Z,31.05
2019-05-16T16:46:13.015Z,30.70
2019-05-16T16:48:43.471Z,30.51
2019-05-16T16:51:17.918Z,30.22
2019-05-16T16:53:52.175Z,30.13
2019-05-16T16:56:27.449Z,29.94
2019-05-16T16:59:03.282Z,29.85
2019-05-16T17:01:37.683Z,29.67
2019-05-16T17:04:11.989Z,29.60
2019-05-16T17:06:46.979Z,29.49
2019-05-16T17:09:21.101Z,30.94
2019-05-16T17:11:57.120Z,30.75
2019-05-16T17:14:31.301Z,30.50
2019-05-16T17:17:07.039Z,30.13
2019-05-16T17:19:44.067Z,29.86
2019-05-16T17:22:20.929Z,29.77
2019-05-16T17:24:56.520Z,29.76
2019-05-16T17:27:30.288Z,29.83
2019-05-16T17:30:07.231Z,29.58
2019-05-16T17:32:43.698Z,29.51
2019-05-16T17:35:19.170Z,29.40
2019-05-16T17:37:53.597Z,29.34
2019-05-16T17:40:38.482Z,29.22
2019-05-16T17:43:13.026Z,29.21
2019-05-16T17:45:47.308Z,29.20
2019-05-16T17:48:21.641Z,29.14
2019-05-16T17:50:57.024Z,29.03
2019-05-16T17:53:33.384Z,29.01
2019-05-16T17:56:08.068Z,28.95
2019-05-16T17:58:49.389Z,29.05
2019-05-16T18:01:23.694Z,29.01
2019-05-16T18:03:58.323Z,28.99
2019-05-16T18:06:32.508Z,29.01
2019-05-16T18:09:07.490Z,29.02
2019-05-16T18:11:41.713Z,29.11
2019-05-16T18:14:17.150Z,29.21
2019-05-16T18:16:58.541Z,29.30
2019-05-16T18:19:27.858Z,29.29
2019-05-16T18:22:01.925Z,29.29
2019-05-16T18:24:36.917Z,29.31
2019-05-16T18:27:12.465Z,29.30
2019-05-16T18:29:47.121Z,29.39
2019-05-16T18:32:21.485Z,29.37
2019-05-16T18:34:56.422Z,29.41
2019-05-16T18:37:33.295Z,29.47
2019-05-16T18:40:07.337Z,29.47
2019-05-16T18:42:41.643Z,29.50
2019-05-16T18:45:16.619Z,29.49
2019-05-16T18:47:50.989Z,29.47
2019-05-16T18:50:26.588Z,29.46
2019-05-16T18:53:00.721Z,29.47
2019-05-16T18:55:38.113Z,29.52
2019-05-16T18:58:12.384Z,29.74
2019-05-16T19:00:46.831Z,29.76
2019-05-16T19:03:21.216Z,30.05
2019-05-16T19:05:57.150Z,30.07
2019-05-16T19:08:31.571Z,32.55
2019-05-16T19:11:07.431Z,33.76
2019-05-16T19:13:41.914Z,34.09
2019-05-16T19:16:16.997Z,34.19
2019-05-16T19:18:51.349Z,34.36
2019-05-16T19:21:26.219Z,34.69
2019-05-16T19:24:00.619Z,35.12
2019-05-16T19:26:34.521Z,35.68
2019-05-16T19:29:08.710Z,36.49
2019-05-16T19:31:46.414Z,36.47
2019-05-16T19:34:20.016Z,36.31
2019-05-16T19:36:57.381Z,36.80
2019-05-16T19:39:31.161Z,37.30
2019-05-16T19:42:06.461Z,37.70
2019-05-16T19:44:40.782Z,38.25
2019-05-16T19:47:14.987Z,38.82
2019-05-16T19:49:49.126Z,39.80
2019-05-16T19:52:23.626Z,41.26
2019-05-16T19:54:57.778Z,42.76
2019-05-16T19:57:32.133Z,43.76
2019-05-16T20:00:06.650Z,44.43
2019-05-16T20:02:41.132Z,44.96
2019-05-16T20:05:17.049Z,45.24
2019-05-16T20:07:52.969Z,45.44
2019-05-16T20:10:27.867Z,45.38
2019-05-16T20:13:02.373Z,45.51
2019-05-16T20:15:36.959Z,45.73
2019-05-16T20:18:11.392Z,45.95
2019-05-16T20:20:47.231Z,46.13
2019-05-16T20:23:21.803Z,46.25
2019-05-16T20:25:57.154Z,46.45
2019-05-16T20:28:31.588Z,46.62
2019-05-16T20:31:07.878Z,46.78
2019-05-16T20:33:42.346Z,46.95
2019-05-16T20:36:17.335Z,47.17
2019-05-16T20:38:51.692Z,47.24
2019-05-16T20:41:27.342Z,46.98
2019-05-16T20:44:01.711Z,47.42
2019-05-16T20:46:36.074Z,47.57
2019-05-16T20:49:10.093Z,47.71
2019-05-16T20:51:46.611Z,47.86
2019-05-16T20:54:20.848Z,47.94
2019-05-16T20:56:57.426Z,48.11
2019-05-16T20:59:31.590Z,48.33
2019-05-16T21:02:06.858Z,48.41
2019-05-16T21:04:41.432Z,48.44
2019-05-16T21:07:17.191Z,48.53
2019-05-16T21:09:51.639Z,48.39
2019-05-16T21:12:26.568Z,48.53
2019-05-16T21:15:00.869Z,48.54
2019-05-16T21:17:35.074Z,48.51
2019-05-16T21:20:09.665Z,47.37
2019-05-16T21:22:43.964Z,46.36
2019-05-16T21:25:18.917Z,46.54
2019-05-16T21:27:53.072Z,47.15
2019-05-16T21:30:27.476Z,47.62
2019-05-16T21:33:01.816Z,47.94
2019-05-16T21:35:36.488Z,48.04
2019-05-16T21:38:10.890Z,48.09
2019-05-16T21:40:45.149Z,47.32
2019-05-16T21:43:19.368Z,47.31
2019-05-16T21:45:53.579Z,47.05
2019-05-16T21:48:28.035Z,46.18
2019-05-16T21:51:03.485Z,45.76
2019-05-16T21:53:37.766Z,46.50
2019-05-16T21:56:12.085Z,47.34
2019-05-16T21:58:47.353Z,47.29
2019-05-16T22:01:26.596Z,47.22
2019-05-16T22:04:00.250Z,47.12
2019-05-16T22:06:36.597Z,47.05
2019-05-16T22:09:11.139Z,46.59
2019-05-16T22:11:46.650Z,44.72
2019-05-16T22:14:24.774Z,45.49
2019-05-16T22:16:58.890Z,45.87
2019-05-16T22:19:33.122Z,45.77
2019-05-16T22:22:07.525Z,45.09
2019-05-16T22:24:41.852Z,44.85
2019-05-16T22:27:17.355Z,45.56
2019-05-16T22:29:51.906Z,46.80
2019-05-16T22:32:27.165Z,47.01
2019-05-16T22:35:03.286Z,46.82
2019-05-16T22:37:49.327Z,46.86
2019-05-16T22:40:14.027Z,46.91
2019-05-16T22:42:49.199Z,45.50
2019-05-16T22:45:23.522Z,44.92
2019-05-16T22:47:57.852Z,46.02
2019-05-16T22:50:32.131Z,46.57
2019-05-16T22:53:06.575Z,46.60
2019-05-16T22:55:40.823Z,46.69
2019-05-16T22:58:16.398Z,46.64
2019-05-16T23:00:50.796Z,46.61
2019-05-16T23:03:26.748Z,46.59
2019-05-16T23:06:00.966Z,45.98
2019-05-16T23:08:36.477Z,45.34
2019-05-16T23:11:10.825Z,45.92
2019-05-16T23:13:46.277Z,46.19
2019-05-16T23:16:21.411Z,46.70
2019-05-16T23:18:57.150Z,46.88
2019-05-16T23:21:31.596Z,46.74
2019-05-16T23:24:06.695Z,46.67
2019-05-16T23:26:42.181Z,46.59
2019-05-16T23:29:16.986Z,45.86
2019-05-16T23:31:51.376Z,45.99
2019-05-16T23:34:26.578Z,46.74
2019-05-16T23:37:02.095Z,46.85
2019-05-16T23:39:37.883Z,46.98
2019-05-16T23:42:12.079Z,47.01
2019-05-16T23:44:47.368Z,46.01
2019-05-16T23:47:21.732Z,46.58
2019-05-16T23:49:56.810Z,46.50
2019-05-16T23:52:31.336Z,45.64
2019-05-16T23:55:08.149Z,46.74
2019-05-16T23:57:41.740Z,46.94
